ナイロビ の空港の天気 - METARとTAF

ジョモ・ケニヤッタ国際空港 ( HKJK / NBO ) - ケニア ナイロビ
飛行場実況気象(Metar)
観測時間02/05 23:30 EAT (02/05 20:30 UTC)
風向・風速北東 5m/s
視程10km以上
天気現象
なし
気温21℃
湿度49%
気圧1020hPa
METARHKJK 052030Z 04010KT CAVOK 21/10 Q1020 NOSIG
過去の天気等 Google飛行場航空写真 Wunderground天気予報

過去48時間のMETAR

飛行場予報(TAF)
発表時間: 2/05 20:00 EAT (2/05 17:00 UTC)
予報対象時間: 5日21時 EAT ~ 7日3時 EAT
風向・風速北北東 3m/s
視程10km以上
なし
6日10時 EAT ~ 6日13時 EAT に徐々に
風向・風速東北東 8m/s
視程10km以上
少しの雲 雲底高度 820m
6日21時 EAT ~ 6日24時 EAT に徐々に
風向・風速北北東 3m/s
視程10km以上
なし
TAF HKJK 051700Z 0518/0624 03005KT CAVOK
BECMG 0607/0610 06015KT 9999 FEW027
BECMG 0618/0621 03005KT CAVOK